createdAt,value
2022-08-09T00:01:52.840Z,97.83
2022-08-09T00:05:03.568Z,98.28
2022-08-09T00:08:32.531Z,98.12
2022-08-09T00:11:58.617Z,98.70
2022-08-09T00:14:58.337Z,98.90
2022-08-09T00:18:11.104Z,97.99
2022-08-09T00:21:14.356Z,97.68
2022-08-09T00:24:18.354Z,97.98
2022-08-09T00:27:22.490Z,98.90
2022-08-09T00:30:26.910Z,98.55
2022-08-09T00:33:48.814Z,98.83
2022-08-09T00:36:52.386Z,98.56
2022-08-09T00:40:13.770Z,98.42
2022-08-09T00:44:13.639Z,98.85
2022-08-09T00:46:56.429Z,99.29
2022-08-09T00:50:05.250Z,99.69
2022-08-09T00:53:10.174Z,99.29
2022-08-09T00:56:16.533Z,99.11
2022-08-09T00:59:31.602Z,99.97
2022-08-09T01:02:48.882Z,99.77
2022-08-09T01:05:58.301Z,99.69
2022-08-09T01:09:19.438Z,99.69
2022-08-09T01:12:34.225Z,99.76
2022-08-09T01:15:52.425Z,100.00
2022-08-09T01:19:02.297Z,99.34
2022-08-09T01:22:28.437Z,98.56
2022-08-09T01:25:50.974Z,98.50
2022-08-09T01:28:57.298Z,99.19
2022-08-09T01:32:30.873Z,98.82
2022-08-09T01:35:38.650Z,99.70
2022-08-09T01:38:46.624Z,100.00
2022-08-09T01:41:53.593Z,100.00
2022-08-09T01:45:05.685Z,100.00
2022-08-09T01:48:10.800Z,99.97
2022-08-09T01:51:23.012Z,99.88
2022-08-09T01:54:33.018Z,100.00
2022-08-09T01:57:46.110Z,100.00
2022-08-09T02:00:55.888Z,100.00
2022-08-09T02:04:00.834Z,99.79
2022-08-09T02:07:17.884Z,100.00
2022-08-09T02:10:30.017Z,100.00
2022-08-09T02:13:40.297Z,99.41
2022-08-09T02:16:59.040Z,100.00
2022-08-09T02:20:08.979Z,99.89
2022-08-09T02:23:20.730Z,100.00
2022-08-09T02:26:29.114Z,100.00
2022-08-09T02:29:37.919Z,99.79
2022-08-09T02:32:45.928Z,99.81
2022-08-09T02:36:02.665Z,99.89
2022-08-09T02:39:14.571Z,100.00
2022-08-09T02:42:26.398Z,99.83
2022-08-09T02:45:32.777Z,99.62
2022-08-09T02:48:38.746Z,99.91
2022-08-09T02:51:56.718Z,100.00
2022-08-09T02:55:20.051Z,99.50
2022-08-09T02:58:36.915Z,99.40
2022-08-09T03:01:43.341Z,99.44
2022-08-09T03:05:08.491Z,99.86
2022-08-09T03:08:19.959Z,99.72
2022-08-09T03:12:04.571Z,99.73
2022-08-09T03:14:48.189Z,99.91
2022-08-09T03:17:54.010Z,98.96
2022-08-09T03:21:04.595Z,99.12
2022-08-09T03:24:07.461Z,99.33
2022-08-09T03:27:14.515Z,99.91
2022-08-09T03:30:29.630Z,99.68
2022-08-09T03:33:54.497Z,99.68
2022-08-09T03:37:10.540Z,99.79
2022-08-09T03:40:22.449Z,99.67
2022-08-09T03:43:32.154Z,98.98
2022-08-09T03:46:36.763Z,99.11
2022-08-09T03:49:41.786Z,98.63
2022-08-09T03:53:04.246Z,100.00
2022-08-09T03:56:09.461Z,99.87
2022-08-09T03:59:17.269Z,99.61
2022-08-09T04:02:26.588Z,98.49
2022-08-09T04:05:29.694Z,98.95
2022-08-09T04:08:36.229Z,99.56
2022-08-09T04:11:55.670Z,99.80
2022-08-09T04:15:02.147Z,100.00
2022-08-09T04:18:17.832Z,98.70
2022-08-09T04:21:20.811Z,99.01
2022-08-09T04:24:26.870Z,98.86
2022-08-09T04:27:29.952Z,98.26
2022-08-09T04:30:35.476Z,98.77
2022-08-09T04:33:47.489Z,100.00
2022-08-09T04:36:55.858Z,99.03
2022-08-09T04:39:59.768Z,99.29
2022-08-09T04:43:05.582Z,100.00
2022-08-09T04:46:08.224Z,100.00
2022-08-09T04:49:30.160Z,100.00
2022-08-09T04:52:44.585Z,100.00
2022-08-09T04:55:57.672Z,100.00
2022-08-09T04:59:06.067Z,100.00
2022-08-09T05:02:15.611Z,100.00
2022-08-09T05:05:18.972Z,100.00
2022-08-09T05:08:35.427Z,100.00
2022-08-09T05:11:39.945Z,100.00
2022-08-09T05:14:46.120Z,100.00
2022-08-09T05:18:38.288Z,100.00
2022-08-09T05:21:20.760Z,100.00
2022-08-09T05:24:26.993Z,100.00
2022-08-09T05:27:31.354Z,100.00
2022-08-09T05:30:34.441Z,100.00
2022-08-09T05:33:42.576Z,100.00
2022-08-09T05:36:46.833Z,99.23
2022-08-09T05:39:50.261Z,100.00
2022-08-09T05:42:54.194Z,100.00
2022-08-09T05:45:57.840Z,100.00
2022-08-09T05:49:00.582Z,100.00
2022-08-09T05:52:03.203Z,100.00
2022-08-09T05:55:08.774Z,100.00
2022-08-09T05:58:18.367Z,100.00
2022-08-09T06:01:21.163Z,100.00
2022-08-09T06:04:24.417Z,100.00
2022-08-09T06:07:37.789Z,100.00
2022-08-09T06:10:40.848Z,100.00
2022-08-09T06:13:45.831Z,100.00
2022-08-09T06:16:52.501Z,100.00
2022-08-09T06:19:55.367Z,100.00
2022-08-09T06:22:57.955Z,99.91
2022-08-09T06:26:01.402Z,99.39
2022-08-09T06:29:05.685Z,99.11
2022-08-09T06:33:00.999Z,98.49
2022-08-09T06:35:56.353Z,98.71
2022-08-09T06:38:53.935Z,97.39
2022-08-09T06:42:09.161Z,100.00
2022-08-09T06:46:04.419Z,99.08
2022-08-09T06:48:42.748Z,99.35
2022-08-09T06:51:45.975Z,98.17
2022-08-09T06:54:48.902Z,99.26
2022-08-09T06:58:01.805Z,99.27
2022-08-09T07:01:08.253Z,96.36
2022-08-09T07:04:10.814Z,95.47
2022-08-09T07:07:58.450Z,95.20
2022-08-09T07:10:45.757Z,92.85
2022-08-09T07:14:04.880Z,97.11
2022-08-09T07:17:10.072Z,92.68
2022-08-09T07:20:15.777Z,93.95
2022-08-09T07:23:19.844Z,91.15
2022-08-09T07:26:22.616Z,89.03
2022-08-09T07:29:26.263Z,86.94
2022-08-09T07:32:35.079Z,90.22
2022-08-09T07:35:53.378Z,87.13
2022-08-09T07:39:01.060Z,84.60
2022-08-09T07:42:05.265Z,83.42
2022-08-09T07:45:23.126Z,84.78
2022-08-09T07:48:35.228Z,83.67
2022-08-09T07:52:06.047Z,81.70
2022-08-09T07:55:10.013Z,80.77
2022-08-09T07:58:14.436Z,81.36
2022-08-09T08:01:17.029Z,79.83
2022-08-09T08:04:31.930Z,80.50
2022-08-09T08:08:43.864Z,78.09
2022-08-09T08:11:03.371Z,77.06
2022-08-09T08:14:21.062Z,73.88
2022-08-09T08:17:53.009Z,72.99
2022-08-09T08:20:50.697Z,70.53
2022-08-09T08:23:55.578Z,68.61
2022-08-09T08:27:00.100Z,67.99
2022-08-09T08:30:04.373Z,67.51
2022-08-09T08:33:07.745Z,69.52
2022-08-09T08:36:28.318Z,67.83
2022-08-09T08:39:39.667Z,67.41
2022-08-09T08:42:47.610Z,66.92
2022-08-09T08:46:03.750Z,66.63
2022-08-09T08:49:12.995Z,65.93
2022-08-09T08:52:57.290Z,64.26
2022-08-09T08:55:52.549Z,63.04
2022-08-09T08:58:55.591Z,63.82
2022-08-09T09:01:58.694Z,62.25
2022-08-09T09:05:06.053Z,60.55
2022-08-09T09:08:30.199Z,57.71
2022-08-09T09:11:38.462Z,56.01
2022-08-09T09:14:43.237Z,59.74
2022-08-09T09:17:49.073Z,57.96
2022-08-09T09:20:55.982Z,57.02
2022-08-09T09:24:10.564Z,57.20
2022-08-09T09:28:06.380Z,57.19
2022-08-09T09:30:57.235Z,54.78
2022-08-09T09:34:14.711Z,58.00
2022-08-09T09:37:31.851Z,61.55
2022-08-09T09:40:46.514Z,61.28
2022-08-09T09:44:12.035Z,60.25
2022-08-09T09:47:17.268Z,58.54
2022-08-09T09:50:49.663Z,53.83
2022-08-09T09:54:20.461Z,53.20
2022-08-09T09:58:02.569Z,48.72
2022-08-09T10:00:54.212Z,50.58
2022-08-09T10:04:01.467Z,46.95
2022-08-09T10:07:09.778Z,43.40
2022-08-09T10:10:12.828Z,45.44
2022-08-09T10:13:24.906Z,45.60
2022-08-09T10:16:56.587Z,45.59
2022-08-09T10:20:14.921Z,46.48
2022-08-09T10:23:21.815Z,46.17
2022-08-09T10:26:26.735Z,46.11
2022-08-09T10:30:43.753Z,47.08
2022-08-09T10:32:56.118Z,49.10
2022-08-09T10:36:01.187Z,51.20
2022-08-09T10:39:05.975Z,53.36
2022-08-09T10:42:18.759Z,52.21
2022-08-09T10:45:24.157Z,51.24
2022-08-09T10:48:42.938Z,47.78
2022-08-09T10:51:55.074Z,45.24
2022-08-09T10:55:03.516Z,43.60
2022-08-09T10:58:06.250Z,42.32
2022-08-09T11:03:13.390Z,43.73
2022-08-09T11:05:24.885Z,44.76
2022-08-09T11:08:47.391Z,45.14
2022-08-09T11:12:10.335Z,45.14
2022-08-09T11:15:33.587Z,43.12
2022-08-09T11:18:46.012Z,47.20
2022-08-09T11:21:57.102Z,45.32
2022-08-09T11:25:10.332Z,43.40
2022-08-09T11:28:54.236Z,41.77
2022-08-09T11:31:59.819Z,41.43
2022-08-09T11:35:07.737Z,43.24
2022-08-09T11:38:17.706Z,42.12
2022-08-09T11:41:38.311Z,41.84
2022-08-09T11:44:46.332Z,42.47
2022-08-09T11:47:50.133Z,44.18
2022-08-09T11:53:02.282Z,42.96
2022-08-09T11:54:33.446Z,43.32
2022-08-09T11:57:47.881Z,41.53
2022-08-09T12:01:03.488Z,40.73
2022-08-09T12:04:23.653Z,40.31
2022-08-09T12:07:41.314Z,40.70
2022-08-09T12:10:52.966Z,40.16
2022-08-09T12:14:07.633Z,38.48
2022-08-09T12:17:28.257Z,37.95
2022-08-09T12:20:43.621Z,35.74
2022-08-09T12:24:06.447Z,37.42
2022-08-09T12:29:11.902Z,37.87
2022-08-09T12:30:44.181Z,38.73
2022-08-09T12:33:58.800Z,41.57
2022-08-09T12:37:21.466Z,44.00
2022-08-09T12:40:28.510Z,45.04
2022-08-09T12:44:05.585Z,44.25
2022-08-09T12:46:55.837Z,41.88
2022-08-09T12:50:16.205Z,42.96
2022-08-09T12:53:35.119Z,40.98
2022-08-09T12:56:51.246Z,38.97
2022-08-09T13:00:13.007Z,37.63
2022-08-09T13:03:28.490Z,38.26
2022-08-09T13:06:50.744Z,37.66
2022-08-09T13:10:02.653Z,36.45
2022-08-09T13:13:09.585Z,37.19
2022-08-09T13:16:17.728Z,34.96
2022-08-09T13:20:10.333Z,35.83
2022-08-09T13:23:01.007Z,36.45
2022-08-09T13:26:10.044Z,35.60
2022-08-09T13:29:16.251Z,35.29
2022-08-09T13:32:27.643Z,35.54
2022-08-09T13:35:34.215Z,35.11
2022-08-09T13:38:55.667Z,36.16
2022-08-09T13:42:03.229Z,33.95
2022-08-09T13:45:12.404Z,34.73
2022-08-09T13:48:15.717Z,34.35
2022-08-09T13:51:18.367Z,34.80
2022-08-09T13:54:21.323Z,35.18
2022-08-09T13:57:36.248Z,34.95
2022-08-09T14:00:46.761Z,36.42
2022-08-09T14:04:02.931Z,36.35
2022-08-09T14:07:07.072Z,37.88
2022-08-09T14:10:17.372Z,38.73
2022-08-09T14:14:22.487Z,38.62
2022-08-09T14:16:59.390Z,39.63
2022-08-09T14:20:03.000Z,38.51
2022-08-09T14:23:06.726Z,40.52
2022-08-09T14:26:10.060Z,41.71
2022-08-09T14:30:03.904Z,41.61
2022-08-09T14:32:40.230Z,40.53
2022-08-09T14:35:52.905Z,42.48
2022-08-09T14:38:56.007Z,40.38
2022-08-09T14:41:58.962Z,41.11
2022-08-09T14:46:39.965Z,41.17
2022-08-09T14:48:27.869Z,40.94
2022-08-09T14:51:42.269Z,41.61
2022-08-09T14:54:45.331Z,42.49
2022-08-09T14:57:47.911Z,43.32
2022-08-09T15:00:52.021Z,44.50
2022-08-09T15:03:56.266Z,44.80
2022-08-09T15:06:58.865Z,44.80
2022-08-09T15:10:07.301Z,45.38
2022-08-09T15:13:15.241Z,45.44
2022-08-09T15:16:19.549Z,46.95
2022-08-09T15:19:26.022Z,46.01
2022-08-09T15:22:28.852Z,47.03
2022-08-09T15:25:38.975Z,47.83
2022-08-09T15:28:43.911Z,48.01
2022-08-09T15:31:57.789Z,46.15
2022-08-09T15:35:02.295Z,46.79
2022-08-09T15:38:24.873Z,46.52
2022-08-09T15:41:31.405Z,45.28
2022-08-09T15:44:34.987Z,46.21
2022-08-09T15:47:51.501Z,47.65
2022-08-09T15:50:57.287Z,49.62
2022-08-09T15:54:04.581Z,49.05
2022-08-09T15:57:10.781Z,48.28
2022-08-09T16:00:17.014Z,49.83
2022-08-09T16:03:38.279Z,52.11
2022-08-09T16:06:50.676Z,51.60
2022-08-09T16:10:04.570Z,51.51
2022-08-09T16:13:20.822Z,51.26
2022-08-09T16:16:31.633Z,51.26
2022-08-09T16:19:36.843Z,51.65
2022-08-09T16:22:53.089Z,52.45
2022-08-09T16:26:02.556Z,52.45
2022-08-09T16:29:11.368Z,52.27
2022-08-09T16:32:33.049Z,53.10
2022-08-09T16:35:57.270Z,52.69
2022-08-09T16:39:02.233Z,53.67
2022-08-09T16:42:06.964Z,54.08
2022-08-09T16:45:10.561Z,55.41
2022-08-09T16:48:38.471Z,57.34
2022-08-09T16:51:36.654Z,57.85
2022-08-09T16:54:41.402Z,58.22
2022-08-09T16:58:08.640Z,58.65
2022-08-09T17:01:07.974Z,58.46
2022-08-09T17:04:13.835Z,58.80
2022-08-09T17:08:46.509Z,58.29
2022-08-09T17:10:55.570Z,58.44
2022-08-09T17:14:01.787Z,59.04
2022-08-09T17:17:26.102Z,59.46
2022-08-09T17:20:37.690Z,61.03
2022-08-09T17:24:20.443Z,61.52
2022-08-09T17:27:15.361Z,62.14
2022-08-09T17:30:20.432Z,62.62
2022-08-09T17:33:23.307Z,62.69
2022-08-09T17:36:26.421Z,63.39
2022-08-09T17:39:52.972Z,63.39
2022-08-09T17:42:59.687Z,64.63
2022-08-09T17:46:13.591Z,64.20
2022-08-09T17:49:21.254Z,65.51
2022-08-09T17:52:24.404Z,65.05
2022-08-09T17:55:34.361Z,65.06
2022-08-09T17:58:51.305Z,65.32
2022-08-09T18:02:06.606Z,65.23
2022-08-09T18:05:15.358Z,65.27
2022-08-09T18:08:18.032Z,65.96
2022-08-09T18:11:24.988Z,66.84
2022-08-09T18:14:30.697Z,66.28
2022-08-09T18:18:03.431Z,66.11
2022-08-09T18:21:18.894Z,66.70
2022-08-09T18:24:18.651Z,66.54
2022-08-09T18:28:02.234Z,66.73
2022-08-09T18:30:49.568Z,67.21
2022-08-09T18:33:53.703Z,68.03
2022-08-09T18:36:56.606Z,69.06
2022-08-09T18:39:59.322Z,69.57
2022-08-09T18:43:02.128Z,70.30
2022-08-09T18:46:50.844Z,70.23
2022-08-09T18:49:32.139Z,70.01
2022-08-09T18:52:46.463Z,69.57
2022-08-09T18:55:57.146Z,71.26
2022-08-09T18:59:03.627Z,70.98
2022-08-09T19:02:09.186Z,71.61
2022-08-09T19:05:20.470Z,71.83
2022-08-09T19:08:31.691Z,72.78
2022-08-09T19:11:37.997Z,72.63
2022-08-09T19:14:43.525Z,73.32
2022-08-09T19:20:59.253Z,74.11
2022-08-09T19:24:31.882Z,73.18
2022-08-09T19:27:28.681Z,73.57
2022-08-09T19:30:32.324Z,72.89
2022-08-09T19:33:36.761Z,73.19
2022-08-09T19:36:39.342Z,73.95
2022-08-09T19:40:04.960Z,74.22
2022-08-09T19:43:10.290Z,73.68
2022-08-09T19:46:35.348Z,74.34
2022-08-09T19:50:07.317Z,74.15
2022-08-09T19:53:04.494Z,75.03
2022-08-09T19:56:07.741Z,75.87
2022-08-09T19:59:57.273Z,76.27
2022-08-09T20:04:11.439Z,75.77
2022-08-09T20:06:22.447Z,77.32
2022-08-09T20:09:44.991Z,76.61
2022-08-09T20:12:49.023Z,77.13
2022-08-09T20:16:35.537Z,77.52
2022-08-09T20:19:49.544Z,77.89
2022-08-09T20:22:38.950Z,77.91
2022-08-09T20:25:52.441Z,77.65
2022-08-09T20:28:55.763Z,77.24
2022-08-09T20:32:31.130Z,78.07
2022-08-09T20:35:21.640Z,78.33
2022-08-09T20:38:42.133Z,78.95
2022-08-09T20:41:48.995Z,78.67
2022-08-09T20:45:04.567Z,78.61
2022-08-09T20:48:20.825Z,78.56
2022-08-09T20:51:24.406Z,78.51
2022-08-09T20:54:28.927Z,78.79
2022-08-09T20:57:32.123Z,78.70
2022-08-09T21:00:35.143Z,79.18
2022-08-09T21:03:39.441Z,80.12
2022-08-09T21:07:11.433Z,80.30
2022-08-09T21:10:17.249Z,80.66
2022-08-09T21:13:20.039Z,81.07
2022-08-09T21:16:22.917Z,80.91
2022-08-09T21:20:18.051Z,80.08
2022-08-09T21:22:55.601Z,80.36
2022-08-09T21:26:00.290Z,81.06
2022-08-09T21:29:11.659Z,81.30
2022-08-09T21:32:18.842Z,81.76
2022-08-09T21:35:21.958Z,81.94
2022-08-09T21:38:30.990Z,82.07
2022-08-09T21:42:03.930Z,82.05
2022-08-09T21:44:58.844Z,82.67
2022-08-09T21:48:02.282Z,83.37
2022-08-09T21:51:13.305Z,82.76
2022-08-09T21:54:17.191Z,83.49
2022-08-09T21:57:25.186Z,83.21
2022-08-09T22:00:40.572Z,82.20
2022-08-09T22:03:48.482Z,82.87
2022-08-09T22:07:04.803Z,83.61
2022-08-09T22:10:09.159Z,83.46
2022-08-09T22:13:13.188Z,83.78
2022-08-09T22:16:21.093Z,83.87
2022-08-09T22:19:58.368Z,83.79
2022-08-09T22:22:48.780Z,84.55
2022-08-09T22:26:06.845Z,84.68
2022-08-09T22:29:12.762Z,84.72
2022-08-09T22:32:30.127Z,84.92
2022-08-09T22:36:01.767Z,84.77
2022-08-09T22:38:56.749Z,85.54
2022-08-09T22:42:06.097Z,86.33
2022-08-09T22:48:12.888Z,86.10
2022-08-09T22:48:50.460Z,86.32
2022-08-09T22:51:56.597Z,86.24
2022-08-09T22:54:59.882Z,86.44
2022-08-09T22:58:04.968Z,87.31
2022-08-09T23:01:09.264Z,86.79
2022-08-09T23:04:11.934Z,87.21
2022-08-09T23:08:22.072Z,87.87
2022-08-09T23:10:54.814Z,87.36
2022-08-09T23:13:58.667Z,88.73
2022-08-09T23:17:02.662Z,88.72
2022-08-09T23:20:08.357Z,88.40
2022-08-09T23:23:11.071Z,88.73
2022-08-09T23:26:13.683Z,88.88
2022-08-09T23:29:16.298Z,89.32
2022-08-09T23:32:20.275Z,89.15
2022-08-09T23:35:23.063Z,89.90
2022-08-09T23:38:25.695Z,90.07
2022-08-09T23:41:29.697Z,90.85
2022-08-09T23:44:32.711Z,90.66
2022-08-09T23:47:36.564Z,91.20
2022-08-09T23:50:39.243Z,90.77
2022-08-09T23:53:42.191Z,91.51
2022-08-09T23:56:54.105Z,91.18
